| Date | Time | Temp. (oF) | Dew Point (oF) | Rel. Hum. (%) | Press. (in.) | Wind Dir. | Wind Speed (mph) | Hourly Rainfall (in.) |
|
|---|---|---|---|---|---|---|---|---|---|
| 1 | 10/20 | 00:00 | 43 | 32 | 67 | 30.23 | SSW | 3 | 0.00 |
| 2 | 10/19 | 23:00 | 44 | 33 | 67 | 30.24 | SSW | 5 | 0.00 |
| 3 | 10/19 | 22:00 | 43 | 33 | 70 | 30.25 | S | 4 | 0.00 |
| 4 | 10/19 | 21:00 | 43 | 32 | 67 | 30.26 | S | 0 | 0.00 |
| 5 | 10/19 | 20:00 | 46 | 32 | 60 | 30.27 | S | 1 | 0.00 |
| 6 | 10/19 | 19:00 | 48 | 28 | 46 | 30.25 | SSW | 4 | 0.00 |
| 7 | 10/19 | 18:00 | 52 | 28 | 40 | 30.25 | S | 5 | 0.00 |
| 8 | 10/19 | 17:00 | 54 | 28 | 37 | 30.26 | SSW | 3 | 0.00 |
| 9 | 10/19 | 16:00 | 54 | 28 | 38 | 30.27 | SW | 6 | 0.00 |
| 10 | 10/19 | 15:00 | 53 | 29 | 40 | 30.31 | S | 5 | 0.00 |
| 11 | 10/19 | 14:00 | 52 | 29 | 42 | 30.35 | SW | 4 | 0.00 |
| 12 | 10/19 | 13:00 | 51 | 32 | 50 | 30.38 | WSW | 2 | 0.00 |
| 13 | 10/19 | 12:00 | 48 | 31 | 53 | 30.41 | SSW | 5 | 0.00 |
| 14 | 10/19 | 11:00 | 45 | 34 | 66 | 30.43 | SSW | 3 | 0.00 |
| 15 | 10/19 | 10:00 | 41 | 35 | 81 | 30.44 | SSW | 3 | 0.00 |
| 16 | 10/19 | 09:00 | 34 | 31 | 90 | 30.44 | SSE | 0 | 0.00 |
| 17 | 10/19 | 08:00 | 27 | 24 | 90 | 30.43 | NNE | 0 | 0.00 |
| 18 | 10/19 | 07:00 | 28 | 25 | 90 | 30.41 | SSE | 0 | 0.00 |
| 19 | 10/19 | 06:00 | 28 | 25 | 89 | 30.40 | NE | 0 | 0.00 |
| 20 | 10/19 | 05:00 | 28 | 24 | 88 | 30.39 | ESE | 0 | 0.00 |
| 21 | 10/19 | 04:00 | 29 | 25 | 86 | 30.38 | SSW | 0 | 0.00 |
| 22 | 10/19 | 03:00 | 30 | 26 | 85 | 30.37 | W | 0 | 0.00 |
| 23 | 10/19 | 02:00 | 32 | 27 | 83 | 30.36 | SW | 0 | 0.00 |
| 24 | 10/19 | 01:00 | 34 | 29 | 83 | 30.35 | W | 0 | 0.00 |